sensor_id;sensor_type;location;lat;lon;timestamp;P1;durP1;ratioP1;P2;durP2;ratioP2
43857;SDS011;29507;51.284;5.758;2022-08-20T00:02:21;18.52;;;9.60;;
43857;SDS011;29507;51.284;5.758;2022-08-20T00:04:46;18.70;;;9.80;;
43857;SDS011;29507;51.284;5.758;2022-08-20T00:07:12;15.00;;;8.60;;
43857;SDS011;29507;51.284;5.758;2022-08-20T00:09:38;17.45;;;9.85;;
43857;SDS011;29507;51.284;5.758;2022-08-20T00:12:05;18.27;;;9.30;;
43857;SDS011;29507;51.284;5.758;2022-08-20T00:14:31;18.42;;;10.13;;
43857;SDS011;29507;51.284;5.758;2022-08-20T00:16:58;17.75;;;9.63;;
43857;SDS011;29507;51.284;5.758;2022-08-20T00:19:23;15.30;;;9.82;;
43857;SDS011;29507;51.284;5.758;2022-08-20T00:21:49;17.00;;;9.35;;
43857;SDS011;29507;51.284;5.758;2022-08-20T00:24:15;22.05;;;11.23;;
43857;SDS011;29507;51.284;5.758;2022-08-20T00:26:40;19.08;;;9.77;;
43857;SDS011;29507;51.284;5.758;2022-08-20T00:29:06;17.75;;;9.27;;
43857;SDS011;29507;51.284;5.758;2022-08-20T00:31:31;14.98;;;8.27;;
43857;SDS011;29507;51.284;5.758;2022-08-20T00:33:57;16.13;;;8.68;;
43857;SDS011;29507;51.284;5.758;2022-08-20T00:36:22;16.85;;;9.90;;
43857;SDS011;29507;51.284;5.758;2022-08-20T00:38:48;20.08;;;10.65;;
43857;SDS011;29507;51.284;5.758;2022-08-20T00:41:18;25.15;;;10.80;;
43857;SDS011;29507;51.284;5.758;2022-08-20T00:43:49;21.73;;;11.82;;
43857;SDS011;29507;51.284;5.758;2022-08-20T00:46:26;21.02;;;10.40;;
43857;SDS011;29507;51.284;5.758;2022-08-20T00:48:53;22.08;;;10.15;;
43857;SDS011;29507;51.284;5.758;2022-08-20T00:54:01;16.15;;;8.90;;
43857;SDS011;29507;51.284;5.758;2022-08-20T00:57:07;18.65;;;9.50;;
43857;SDS011;29507;51.284;5.758;2022-08-20T00:59:44;17.03;;;9.67;;
43857;SDS011;29507;51.284;5.758;2022-08-20T01:02:13;17.20;;;9.98;;
43857;SDS011;29507;51.284;5.758;2022-08-20T01:04:40;19.83;;;9.23;;
43857;SDS011;29507;51.284;5.758;2022-08-20T01:07:09;17.15;;;8.88;;
43857;SDS011;29507;51.284;5.758;2022-08-20T01:09:35;18.75;;;9.35;;
43857;SDS011;29507;51.284;5.758;2022-08-20T01:12:02;19.63;;;10.48;;
43857;SDS011;29507;51.284;5.758;2022-08-20T01:14:30;15.38;;;9.38;;
43857;SDS011;29507;51.284;5.758;2022-08-20T01:17:07;17.92;;;9.55;;
43857;SDS011;29507;51.284;5.758;2022-08-20T01:19:34;21.63;;;10.82;;
43857;SDS011;29507;51.284;5.758;2022-08-20T01:22:12;16.08;;;9.25;;
43857;SDS011;29507;51.284;5.758;2022-08-20T01:25:06;19.88;;;10.45;;
43857;SDS011;29507;51.284;5.758;2022-08-20T01:27:38;21.70;;;10.52;;
43857;SDS011;29507;51.284;5.758;2022-08-20T01:30:05;17.10;;;10.02;;
43857;SDS011;29507;51.284;5.758;2022-08-20T01:32:31;23.95;;;12.23;;
43857;SDS011;29507;51.284;5.758;2022-08-20T01:34:57;24.48;;;11.50;;
43857;SDS011;29507;51.284;5.758;2022-08-20T01:37:22;22.45;;;13.13;;
43857;SDS011;29507;51.284;5.758;2022-08-20T01:39:48;19.73;;;11.63;;
43857;SDS011;29507;51.284;5.758;2022-08-20T01:42:18;25.95;;;13.50;;
43857;SDS011;29507;51.284;5.758;2022-08-20T01:44:56;26.08;;;13.70;;
43857;SDS011;29507;51.284;5.758;2022-08-20T01:47:23;26.85;;;13.85;;
43857;SDS011;29507;51.284;5.758;2022-08-20T01:49:54;26.40;;;13.10;;
43857;SDS011;29507;51.284;5.758;2022-08-20T01:52:30;21.50;;;12.98;;
43857;SDS011;29507;51.284;5.758;2022-08-20T01:55:04;22.30;;;12.65;;
43857;SDS011;29507;51.284;5.758;2022-08-20T01:57:30;23.88;;;13.77;;
43857;SDS011;29507;51.284;5.758;2022-08-20T01:59:55;22.25;;;11.88;;
43857;SDS011;29507;51.284;5.758;2022-08-20T02:02:21;28.08;;;14.13;;
43857;SDS011;29507;51.284;5.758;2022-08-20T02:04:48;22.58;;;13.20;;
43857;SDS011;29507;51.284;5.758;2022-08-20T02:07:15;24.92;;;13.43;;
43857;SDS011;29507;51.284;5.758;2022-08-20T02:09:44;25.30;;;13.40;;
43857;SDS011;29507;51.284;5.758;2022-08-20T02:12:11;27.33;;;15.73;;
43857;SDS011;29507;51.284;5.758;2022-08-20T02:14:39;24.30;;;15.35;;
43857;SDS011;29507;51.284;5.758;2022-08-20T02:17:08;29.20;;;16.40;;
43857;SDS011;29507;51.284;5.758;2022-08-20T02:19:38;24.90;;;15.95;;
43857;SDS011;29507;51.284;5.758;2022-08-20T02:22:10;31.95;;;18.23;;
43857;SDS011;29507;51.284;5.758;2022-08-20T02:24:46;31.10;;;18.80;;
43857;SDS011;29507;51.284;5.758;2022-08-20T02:27:11;29.33;;;18.58;;
43857;SDS011;29507;51.284;5.758;2022-08-20T02:29:37;29.30;;;17.60;;
43857;SDS011;29507;51.284;5.758;2022-08-20T02:32:03;31.98;;;17.73;;
43857;SDS011;29507;51.284;5.758;2022-08-20T02:34:30;29.75;;;19.02;;
43857;SDS011;29507;51.284;5.758;2022-08-20T02:36:58;34.85;;;19.75;;
43857;SDS011;29507;51.284;5.758;2022-08-20T02:39:25;32.67;;;18.83;;
43857;SDS011;29507;51.284;5.758;2022-08-20T02:41:50;33.78;;;20.33;;
43857;SDS011;29507;51.284;5.758;2022-08-20T02:44:17;33.22;;;20.98;;
43857;SDS011;29507;51.284;5.758;2022-08-20T02:46:45;35.25;;;20.08;;
43857;SDS011;29507;51.284;5.758;2022-08-20T02:49:14;37.17;;;18.90;;
43857;SDS011;29507;51.284;5.758;2022-08-20T02:51:41;35.38;;;20.60;;
43857;SDS011;29507;51.284;5.758;2022-08-20T02:54:07;34.55;;;19.70;;
43857;SDS011;29507;51.284;5.758;2022-08-20T02:56:33;32.33;;;19.63;;
43857;SDS011;29507;51.284;5.758;2022-08-20T02:58:59;35.50;;;19.45;;
43857;SDS011;29507;51.284;5.758;2022-08-20T03:01:24;32.45;;;19.17;;
43857;SDS011;29507;51.284;5.758;2022-08-20T03:03:51;36.28;;;19.90;;
43857;SDS011;29507;51.284;5.758;2022-08-20T03:06:17;38.05;;;20.83;;
43857;SDS011;29507;51.284;5.758;2022-08-20T03:08:43;39.60;;;22.45;;
43857;SDS011;29507;51.284;5.758;2022-08-20T03:11:09;36.30;;;20.15;;
43857;SDS011;29507;51.284;5.758;2022-08-20T03:13:34;38.60;;;21.92;;
43857;SDS011;29507;51.284;5.758;2022-08-20T03:16:02;40.00;;;22.80;;
43857;SDS011;29507;51.284;5.758;2022-08-20T03:18:30;33.22;;;20.38;;
43857;SDS011;29507;51.284;5.758;2022-08-20T03:20:58;38.75;;;22.25;;
43857;SDS011;29507;51.284;5.758;2022-08-20T03:23:24;36.90;;;20.10;;
43857;SDS011;29507;51.284;5.758;2022-08-20T03:25:50;41.20;;;22.15;;
43857;SDS011;29507;51.284;5.758;2022-08-20T03:28:15;41.40;;;21.77;;
43857;SDS011;29507;51.284;5.758;2022-08-20T03:30:41;39.88;;;20.42;;
43857;SDS011;29507;51.284;5.758;2022-08-20T03:33:07;35.83;;;19.63;;
43857;SDS011;29507;51.284;5.758;2022-08-20T03:35:34;37.17;;;20.88;;
43857;SDS011;29507;51.284;5.758;2022-08-20T03:38:04;38.30;;;20.20;;
43857;SDS011;29507;51.284;5.758;2022-08-20T03:40:31;36.60;;;20.52;;
43857;SDS011;29507;51.284;5.758;2022-08-20T03:42:58;37.95;;;20.35;;
43857;SDS011;29507;51.284;5.758;2022-08-20T03:45:25;32.70;;;19.02;;
43857;SDS011;29507;51.284;5.758;2022-08-20T03:47:52;39.05;;;22.48;;
43857;SDS011;29507;51.284;5.758;2022-08-20T03:50:19;33.13;;;20.17;;
43857;SDS011;29507;51.284;5.758;2022-08-20T03:52:47;33.90;;;18.95;;
43857;SDS011;29507;51.284;5.758;2022-08-20T03:55:13;34.53;;;18.17;;
43857;SDS011;29507;51.284;5.758;2022-08-20T03:57:46;30.50;;;16.40;;
43857;SDS011;29507;51.284;5.758;2022-08-20T04:00:14;25.38;;;14.32;;
43857;SDS011;29507;51.284;5.758;2022-08-20T04:02:45;28.80;;;15.18;;
43857;SDS011;29507;51.284;5.758;2022-08-20T04:05:11;27.08;;;15.65;;
43857;SDS011;29507;51.284;5.758;2022-08-20T04:07:37;26.88;;;14.18;;
43857;SDS011;29507;51.284;5.758;2022-08-20T04:10:05;30.13;;;15.13;;
43857;SDS011;29507;51.284;5.758;2022-08-20T04:12:33;33.03;;;16.17;;
43857;SDS011;29507;51.284;5.758;2022-08-20T04:15:03;30.52;;;14.70;;
43857;SDS011;29507;51.284;5.758;2022-08-20T04:17:29;27.98;;;15.05;;
43857;SDS011;29507;51.284;5.758;2022-08-20T04:19:56;30.55;;;15.55;;
43857;SDS011;29507;51.284;5.758;2022-08-20T04:22:22;31.08;;;16.50;;
43857;SDS011;29507;51.284;5.758;2022-08-20T04:24:47;32.35;;;17.08;;
43857;SDS011;29507;51.284;5.758;2022-08-20T04:27:14;31.20;;;16.90;;
43857;SDS011;29507;51.284;5.758;2022-08-20T04:29:40;34.42;;;17.60;;
43857;SDS011;29507;51.284;5.758;2022-08-20T04:32:08;33.47;;;16.57;;
43857;SDS011;29507;51.284;5.758;2022-08-20T04:34:35;40.03;;;19.33;;
43857;SDS011;29507;51.284;5.758;2022-08-20T04:37:00;35.17;;;17.13;;
43857;SDS011;29507;51.284;5.758;2022-08-20T04:39:26;37.55;;;18.75;;
43857;SDS011;29507;51.284;5.758;2022-08-20T04:41:52;37.35;;;20.45;;
43857;SDS011;29507;51.284;5.758;2022-08-20T04:44:17;35.17;;;18.67;;
43857;SDS011;29507;51.284;5.758;2022-08-20T04:46:44;35.60;;;18.90;;
43857;SDS011;29507;51.284;5.758;2022-08-20T04:49:09;38.60;;;20.25;;
43857;SDS011;29507;51.284;5.758;2022-08-20T04:51:36;43.80;;;22.23;;
43857;SDS011;29507;51.284;5.758;2022-08-20T04:54:01;41.92;;;22.38;;
43857;SDS011;29507;51.284;5.758;2022-08-20T04:56:30;52.60;;;23.10;;
43857;SDS011;29507;51.284;5.758;2022-08-20T04:59:02;43.17;;;21.25;;
43857;SDS011;29507;51.284;5.758;2022-08-20T05:01:28;47.10;;;22.38;;
43857;SDS011;29507;51.284;5.758;2022-08-20T05:03:55;45.67;;;22.38;;
43857;SDS011;29507;51.284;5.758;2022-08-20T05:06:22;48.08;;;22.13;;
43857;SDS011;29507;51.284;5.758;2022-08-20T05:08:53;42.20;;;21.85;;
43857;SDS011;29507;51.284;5.758;2022-08-20T05:11:20;39.40;;;19.65;;
43857;SDS011;29507;51.284;5.758;2022-08-20T05:13:46;38.13;;;17.90;;
43857;SDS011;29507;51.284;5.758;2022-08-20T05:16:12;33.05;;;16.65;;
43857;SDS011;29507;51.284;5.758;2022-08-20T05:18:39;37.50;;;16.90;;
43857;SDS011;29507;51.284;5.758;2022-08-20T05:21:05;33.97;;;16.52;;
43857;SDS011;29507;51.284;5.758;2022-08-20T05:23:33;32.90;;;16.83;;
43857;SDS011;29507;51.284;5.758;2022-08-20T05:26:00;26.95;;;14.85;;
43857;SDS011;29507;51.284;5.758;2022-08-20T05:28:31;36.95;;;17.75;;
43857;SDS011;29507;51.284;5.758;2022-08-20T05:30:58;29.33;;;15.40;;
43857;SDS011;29507;51.284;5.758;2022-08-20T05:33:25;31.05;;;15.48;;
43857;SDS011;29507;51.284;5.758;2022-08-20T05:35:52;37.22;;;16.98;;
43857;SDS011;29507;51.284;5.758;2022-08-20T05:38:20;33.30;;;15.05;;
43857;SDS011;29507;51.284;5.758;2022-08-20T05:40:48;33.60;;;14.95;;
43857;SDS011;29507;51.284;5.758;2022-08-20T05:43:15;29.20;;;13.95;;
43857;SDS011;29507;51.284;5.758;2022-08-20T05:45:42;28.83;;;16.15;;
43857;SDS011;29507;51.284;5.758;2022-08-20T05:48:13;33.55;;;15.05;;
43857;SDS011;29507;51.284;5.758;2022-08-20T05:50:41;28.77;;;14.07;;
43857;SDS011;29507;51.284;5.758;2022-08-20T05:53:08;32.90;;;13.95;;
43857;SDS011;29507;51.284;5.758;2022-08-20T05:55:34;30.58;;;15.20;;
43857;SDS011;29507;51.284;5.758;2022-08-20T05:58:04;30.02;;;16.20;;
43857;SDS011;29507;51.284;5.758;2022-08-20T06:00:33;31.25;;;16.27;;
43857;SDS011;29507;51.284;5.758;2022-08-20T06:02:59;37.63;;;15.88;;
43857;SDS011;29507;51.284;5.758;2022-08-20T06:05:43;27.33;;;15.35;;
43857;SDS011;29507;51.284;5.758;2022-08-20T06:08:10;33.70;;;15.70;;
43857;SDS011;29507;51.284;5.758;2022-08-20T06:10:36;29.60;;;14.57;;
43857;SDS011;29507;51.284;5.758;2022-08-20T06:13:03;28.92;;;16.15;;
43857;SDS011;29507;51.284;5.758;2022-08-20T06:15:30;27.70;;;14.70;;
43857;SDS011;29507;51.284;5.758;2022-08-20T06:17:56;27.55;;;14.35;;
43857;SDS011;29507;51.284;5.758;2022-08-20T06:20:22;31.58;;;16.08;;
43857;SDS011;29507;51.284;5.758;2022-08-20T06:22:48;31.40;;;16.60;;
43857;SDS011;29507;51.284;5.758;2022-08-20T06:25:14;37.53;;;16.38;;
43857;SDS011;29507;51.284;5.758;2022-08-20T06:27:40;37.17;;;17.92;;
43857;SDS011;29507;51.284;5.758;2022-08-20T06:30:11;34.45;;;17.73;;
43857;SDS011;29507;51.284;5.758;2022-08-20T06:32:39;34.45;;;17.05;;
43857;SDS011;29507;51.284;5.758;2022-08-20T06:35:05;43.20;;;19.83;;
43857;SDS011;29507;51.284;5.758;2022-08-20T06:37:33;38.78;;;19.02;;
43857;SDS011;29507;51.284;5.758;2022-08-20T06:42:32;38.45;;;18.33;;
43857;SDS011;29507;51.284;5.758;2022-08-20T06:44:58;30.95;;;17.25;;
43857;SDS011;29507;51.284;5.758;2022-08-20T06:47:24;37.42;;;18.25;;
43857;SDS011;29507;51.284;5.758;2022-08-20T06:49:50;33.75;;;17.33;;
43857;SDS011;29507;51.284;5.758;2022-08-20T06:52:16;35.35;;;17.92;;
43857;SDS011;29507;51.284;5.758;2022-08-20T06:54:42;31.75;;;17.60;;
43857;SDS011;29507;51.284;5.758;2022-08-20T06:57:09;29.25;;;16.83;;
43857;SDS011;29507;51.284;5.758;2022-08-20T06:59:34;34.20;;;17.52;;
43857;SDS011;29507;51.284;5.758;2022-08-20T07:02:00;35.20;;;19.00;;
43857;SDS011;29507;51.284;5.758;2022-08-20T07:04:26;33.38;;;18.73;;
43857;SDS011;29507;51.284;5.758;2022-08-20T07:06:52;37.05;;;19.35;;
43857;SDS011;29507;51.284;5.758;2022-08-20T07:09:19;36.63;;;19.15;;
43857;SDS011;29507;51.284;5.758;2022-08-20T07:11:46;40.30;;;20.15;;
43857;SDS011;29507;51.284;5.758;2022-08-20T07:14:13;39.55;;;19.83;;
43857;SDS011;29507;51.284;5.758;2022-08-20T07:16:39;37.70;;;19.40;;
43857;SDS011;29507;51.284;5.758;2022-08-20T07:19:05;37.70;;;19.48;;
43857;SDS011;29507;51.284;5.758;2022-08-20T07:21:32;42.35;;;22.27;;
43857;SDS011;29507;51.284;5.758;2022-08-20T07:23:58;41.08;;;20.50;;
43857;SDS011;29507;51.284;5.758;2022-08-20T07:26:23;52.80;;;23.08;;
43857;SDS011;29507;51.284;5.758;2022-08-20T07:28:49;42.45;;;22.23;;
43857;SDS011;29507;51.284;5.758;2022-08-20T07:31:15;39.17;;;22.10;;
43857;SDS011;29507;51.284;5.758;2022-08-20T07:34:13;42.72;;;22.88;;
43857;SDS011;29507;51.284;5.758;2022-08-20T07:36:38;41.50;;;22.73;;
43857;SDS011;29507;51.284;5.758;2022-08-20T07:39:04;46.72;;;23.23;;
43857;SDS011;29507;51.284;5.758;2022-08-20T07:41:30;43.58;;;22.10;;
43857;SDS011;29507;51.284;5.758;2022-08-20T07:43:56;35.63;;;19.65;;
43857;SDS011;29507;51.284;5.758;2022-08-20T07:46:22;36.67;;;21.17;;
43857;SDS011;29507;51.284;5.758;2022-08-20T07:48:48;39.17;;;19.23;;
43857;SDS011;29507;51.284;5.758;2022-08-20T07:51:14;36.30;;;17.92;;
43857;SDS011;29507;51.284;5.758;2022-08-20T07:53:42;41.38;;;19.05;;
43857;SDS011;29507;51.284;5.758;2022-08-20T07:56:11;32.15;;;18.65;;
43857;SDS011;29507;51.284;5.758;2022-08-20T07:58:40;40.28;;;19.30;;
43857;SDS011;29507;51.284;5.758;2022-08-20T08:01:13;39.15;;;18.67;;
43857;SDS011;29507;51.284;5.758;2022-08-20T08:03:41;40.97;;;18.73;;
43857;SDS011;29507;51.284;5.758;2022-08-20T08:06:07;39.63;;;18.42;;
43857;SDS011;29507;51.284;5.758;2022-08-20T08:08:33;39.50;;;21.10;;
43857;SDS011;29507;51.284;5.758;2022-08-20T08:11:01;42.65;;;21.15;;
43857;SDS011;29507;51.284;5.758;2022-08-20T08:13:28;41.42;;;19.55;;
43857;SDS011;29507;51.284;5.758;2022-08-20T08:15:57;46.15;;;21.80;;
43857;SDS011;29507;51.284;5.758;2022-08-20T08:18:32;42.80;;;19.17;;
43857;SDS011;29507;51.284;5.758;2022-08-20T08:21:02;40.35;;;20.77;;
43857;SDS011;29507;51.284;5.758;2022-08-20T08:23:32;38.35;;;18.98;;
43857;SDS011;29507;51.284;5.758;2022-08-20T08:25:58;41.50;;;20.15;;
43857;SDS011;29507;51.284;5.758;2022-08-20T08:28:24;42.72;;;20.40;;
43857;SDS011;29507;51.284;5.758;2022-08-20T08:30:53;40.38;;;20.73;;
43857;SDS011;29507;51.284;5.758;2022-08-20T08:35:52;37.90;;;21.75;;
43857;SDS011;29507;51.284;5.758;2022-08-20T08:40:48;39.55;;;20.20;;
43857;SDS011;29507;51.284;5.758;2022-08-20T08:43:18;36.97;;;18.75;;
43857;SDS011;29507;51.284;5.758;2022-08-20T08:45:48;40.80;;;20.43;;
43857;SDS011;29507;51.284;5.758;2022-08-20T08:48:43;36.83;;;19.30;;
43857;SDS011;29507;51.284;5.758;2022-08-20T08:51:12;41.75;;;20.35;;
43857;SDS011;29507;51.284;5.758;2022-08-20T08:53:43;38.15;;;19.63;;
43857;SDS011;29507;51.284;5.758;2022-08-20T08:56:13;40.53;;;20.90;;
43857;SDS011;29507;51.284;5.758;2022-08-20T08:58:40;43.30;;;20.05;;
43857;SDS011;29507;51.284;5.758;2022-08-20T09:01:09;45.27;;;21.50;;
43857;SDS011;29507;51.284;5.758;2022-08-20T09:03:36;43.15;;;21.83;;
43857;SDS011;29507;51.284;5.758;2022-08-20T09:06:08;46.03;;;20.08;;
43857;SDS011;29507;51.284;5.758;2022-08-20T09:11:18;42.65;;;21.83;;
43857;SDS011;29507;51.284;5.758;2022-08-20T09:13:46;50.75;;;22.35;;
43857;SDS011;29507;51.284;5.758;2022-08-20T09:16:12;43.38;;;22.08;;
43857;SDS011;29507;51.284;5.758;2022-08-20T09:18:38;43.08;;;21.77;;
43857;SDS011;29507;51.284;5.758;2022-08-20T09:21:04;50.38;;;22.67;;
43857;SDS011;29507;51.284;5.758;2022-08-20T09:23:30;41.35;;;22.30;;
43857;SDS011;29507;51.284;5.758;2022-08-20T09:25:56;49.58;;;22.88;;
43857;SDS011;29507;51.284;5.758;2022-08-20T09:28:22;45.78;;;21.05;;
43857;SDS011;29507;51.284;5.758;2022-08-20T09:30:47;46.63;;;20.88;;
43857;SDS011;29507;51.284;5.758;2022-08-20T09:33:13;43.42;;;20.60;;
43857;SDS011;29507;51.284;5.758;2022-08-20T09:35:39;41.85;;;21.05;;
43857;SDS011;29507;51.284;5.758;2022-08-20T09:38:05;42.10;;;20.13;;
43857;SDS011;29507;51.284;5.758;2022-08-20T09:40:31;35.65;;;19.25;;
43857;SDS011;29507;51.284;5.758;2022-08-20T09:42:57;40.03;;;19.00;;
43857;SDS011;29507;51.284;5.758;2022-08-20T09:45:22;37.10;;;19.65;;
43857;SDS011;29507;51.284;5.758;2022-08-20T09:47:48;35.50;;;18.92;;
43857;SDS011;29507;51.284;5.758;2022-08-20T09:50:14;28.02;;;16.48;;
43857;SDS011;29507;51.284;5.758;2022-08-20T09:52:40;31.38;;;16.30;;
43857;SDS011;29507;51.284;5.758;2022-08-20T09:55:23;25.20;;;15.10;;
43857;SDS011;29507;51.284;5.758;2022-08-20T09:58:23;27.58;;;15.45;;
43857;SDS011;29507;51.284;5.758;2022-08-20T10:00:58;23.85;;;13.95;;
43857;SDS011;29507;51.284;5.758;2022-08-20T10:03:27;21.65;;;11.70;;
43857;SDS011;29507;51.284;5.758;2022-08-20T10:05:53;23.55;;;12.90;;
43857;SDS011;29507;51.284;5.758;2022-08-20T10:08:19;17.08;;;9.80;;
43857;SDS011;29507;51.284;5.758;2022-08-20T10:10:44;16.92;;;9.65;;
43857;SDS011;29507;51.284;5.758;2022-08-20T10:13:10;14.77;;;9.75;;
43857;SDS011;29507;51.284;5.758;2022-08-20T10:15:35;18.15;;;9.40;;
43857;SDS011;29507;51.284;5.758;2022-08-20T10:18:02;13.45;;;8.80;;
43857;SDS011;29507;51.284;5.758;2022-08-20T10:20:29;16.77;;;8.68;;
43857;SDS011;29507;51.284;5.758;2022-08-20T10:22:55;17.08;;;9.00;;
43857;SDS011;29507;51.284;5.758;2022-08-20T10:25:20;15.52;;;8.82;;
43857;SDS011;29507;51.284;5.758;2022-08-20T10:27:46;15.60;;;8.57;;
43857;SDS011;29507;51.284;5.758;2022-08-20T10:30:12;16.73;;;9.25;;
43857;SDS011;29507;51.284;5.758;2022-08-20T10:32:38;13.13;;;7.70;;
43857;SDS011;29507;51.284;5.758;2022-08-20T10:35:05;14.70;;;8.40;;
43857;SDS011;29507;51.284;5.758;2022-08-20T10:37:31;11.45;;;7.28;;
43857;SDS011;29507;51.284;5.758;2022-08-20T10:39:58;10.45;;;6.70;;
43857;SDS011;29507;51.284;5.758;2022-08-20T10:42:24;17.48;;;8.02;;
43857;SDS011;29507;51.284;5.758;2022-08-20T10:44:50;15.43;;;8.07;;
43857;SDS011;29507;51.284;5.758;2022-08-20T10:47:17;11.52;;;6.80;;
43857;SDS011;29507;51.284;5.758;2022-08-20T10:49:55;13.77;;;7.65;;
43857;SDS011;29507;51.284;5.758;2022-08-20T10:52:22;10.88;;;6.40;;
43857;SDS011;29507;51.284;5.758;2022-08-20T10:54:49;13.52;;;8.52;;
43857;SDS011;29507;51.284;5.758;2022-08-20T10:57:17;12.32;;;7.47;;
43857;SDS011;29507;51.284;5.758;2022-08-20T10:59:45;16.27;;;7.95;;
43857;SDS011;29507;51.284;5.758;2022-08-20T11:02:12;12.45;;;6.20;;
43857;SDS011;29507;51.284;5.758;2022-08-20T11:04:38;10.55;;;6.90;;
43857;SDS011;29507;51.284;5.758;2022-08-20T11:07:14;11.10;;;6.88;;
43857;SDS011;29507;51.284;5.758;2022-08-20T11:09:40;12.60;;;6.47;;
43857;SDS011;29507;51.284;5.758;2022-08-20T11:12:07;12.95;;;7.32;;
43857;SDS011;29507;51.284;5.758;2022-08-20T11:14:33;13.13;;;7.65;;
43857;SDS011;29507;51.284;5.758;2022-08-20T11:16:59;15.60;;;8.48;;
43857;SDS011;29507;51.284;5.758;2022-08-20T11:19:27;14.32;;;7.80;;
43857;SDS011;29507;51.284;5.758;2022-08-20T11:21:53;14.82;;;7.25;;
43857;SDS011;29507;51.284;5.758;2022-08-20T11:24:18;14.05;;;7.72;;
43857;SDS011;29507;51.284;5.758;2022-08-20T11:26:45;14.32;;;7.20;;
43857;SDS011;29507;51.284;5.758;2022-08-20T11:29:12;14.68;;;7.53;;
43857;SDS011;29507;51.284;5.758;2022-08-20T11:31:38;13.65;;;7.32;;
43857;SDS011;29507;51.284;5.758;2022-08-20T11:34:03;15.13;;;8.20;;
43857;SDS011;29507;51.284;5.758;2022-08-20T11:36:29;16.98;;;7.68;;
43857;SDS011;29507;51.284;5.758;2022-08-20T11:38:55;12.63;;;7.47;;
43857;SDS011;29507;51.284;5.758;2022-08-20T11:41:21;12.25;;;6.90;;
43857;SDS011;29507;51.284;5.758;2022-08-20T11:43:46;16.20;;;6.10;;
43857;SDS011;29507;51.284;5.758;2022-08-20T11:46:12;13.13;;;6.78;;
43857;SDS011;29507;51.284;5.758;2022-08-20T11:48:38;13.75;;;6.90;;
43857;SDS011;29507;51.284;5.758;2022-08-20T11:51:03;11.18;;;6.95;;
43857;SDS011;29507;51.284;5.758;2022-08-20T11:53:29;15.55;;;6.60;;
43857;SDS011;29507;51.284;5.758;2022-08-20T11:55:55;11.60;;;6.78;;
43857;SDS011;29507;51.284;5.758;2022-08-20T11:58:20;14.00;;;7.03;;
43857;SDS011;29507;51.284;5.758;2022-08-20T12:00:46;12.55;;;6.47;;
43857;SDS011;29507;51.284;5.758;2022-08-20T12:03:12;10.60;;;5.90;;
43857;SDS011;29507;51.284;5.758;2022-08-20T12:05:38;12.27;;;6.55;;
43857;SDS011;29507;51.284;5.758;2022-08-20T12:08:06;12.83;;;6.93;;
43857;SDS011;29507;51.284;5.758;2022-08-20T12:10:32;12.70;;;7.57;;
43857;SDS011;29507;51.284;5.758;2022-08-20T12:12:58;11.80;;;7.07;;
43857;SDS011;29507;51.284;5.758;2022-08-20T12:15:23;12.98;;;6.80;;
43857;SDS011;29507;51.284;5.758;2022-08-20T12:17:50;14.32;;;6.97;;
43857;SDS011;29507;51.284;5.758;2022-08-20T12:20:16;16.38;;;7.85;;
43857;SDS011;29507;51.284;5.758;2022-08-20T12:22:42;13.05;;;6.50;;
43857;SDS011;29507;51.284;5.758;2022-08-20T12:25:08;12.98;;;7.18;;
43857;SDS011;29507;51.284;5.758;2022-08-20T12:27:35;11.30;;;7.10;;
43857;SDS011;29507;51.284;5.758;2022-08-20T12:30:03;11.18;;;6.22;;
43857;SDS011;29507;51.284;5.758;2022-08-20T12:32:32;16.48;;;7.63;;
43857;SDS011;29507;51.284;5.758;2022-08-20T12:34:57;14.40;;;7.75;;
43857;SDS011;29507;51.284;5.758;2022-08-20T12:37:25;17.85;;;6.55;;
43857;SDS011;29507;51.284;5.758;2022-08-20T12:39:53;13.75;;;7.20;;
43857;SDS011;29507;51.284;5.758;2022-08-20T12:42:21;12.40;;;5.97;;
43857;SDS011;29507;51.284;5.758;2022-08-20T12:44:47;14.30;;;7.03;;
43857;SDS011;29507;51.284;5.758;2022-08-20T12:47:15;14.32;;;6.50;;
43857;SDS011;29507;51.284;5.758;2022-08-20T12:49:44;13.77;;;6.55;;
43857;SDS011;29507;51.284;5.758;2022-08-20T12:52:13;11.30;;;5.95;;
43857;SDS011;29507;51.284;5.758;2022-08-20T12:54:40;12.77;;;6.15;;
43857;SDS011;29507;51.284;5.758;2022-08-20T12:57:05;14.93;;;6.30;;
43857;SDS011;29507;51.284;5.758;2022-08-20T12:59:36;12.50;;;5.68;;
43857;SDS011;29507;51.284;5.758;2022-08-20T13:02:02;14.35;;;6.43;;
43857;SDS011;29507;51.284;5.758;2022-08-20T13:04:28;12.77;;;6.30;;
43857;SDS011;29507;51.284;5.758;2022-08-20T13:06:58;8.88;;;5.32;;
43857;SDS011;29507;51.284;5.758;2022-08-20T13:09:24;10.25;;;5.15;;
43857;SDS011;29507;51.284;5.758;2022-08-20T13:11:50;12.45;;;5.18;;
43857;SDS011;29507;51.284;5.758;2022-08-20T13:14:16;14.15;;;4.72;;
43857;SDS011;29507;51.284;5.758;2022-08-20T13:16:41;12.27;;;5.30;;
43857;SDS011;29507;51.284;5.758;2022-08-20T13:19:07;11.30;;;4.53;;
43857;SDS011;29507;51.284;5.758;2022-08-20T13:21:33;9.60;;;4.47;;
43857;SDS011;29507;51.284;5.758;2022-08-20T13:23:58;10.88;;;4.85;;
43857;SDS011;29507;51.284;5.758;2022-08-20T13:26:24;11.02;;;4.30;;
43857;SDS011;29507;51.284;5.758;2022-08-20T13:28:49;8.68;;;4.28;;
43857;SDS011;29507;51.284;5.758;2022-08-20T13:31:15;8.13;;;3.72;;
43857;SDS011;29507;51.284;5.758;2022-08-20T13:33:41;9.02;;;3.83;;
43857;SDS011;29507;51.284;5.758;2022-08-20T13:36:06;9.63;;;2.97;;
43857;SDS011;29507;51.284;5.758;2022-08-20T13:38:32;11.60;;;4.35;;
43857;SDS011;29507;51.284;5.758;2022-08-20T13:40:57;8.23;;;2.97;;
43857;SDS011;29507;51.284;5.758;2022-08-20T13:43:23;7.50;;;3.20;;
43857;SDS011;29507;51.284;5.758;2022-08-20T13:45:48;10.00;;;3.60;;
43857;SDS011;29507;51.284;5.758;2022-08-20T13:48:14;8.63;;;3.15;;
43857;SDS011;29507;51.284;5.758;2022-08-20T13:50:40;9.35;;;3.47;;
43857;SDS011;29507;51.284;5.758;2022-08-20T13:53:05;6.32;;;2.47;;
43857;SDS011;29507;51.284;5.758;2022-08-20T13:55:31;7.50;;;3.20;;
43857;SDS011;29507;51.284;5.758;2022-08-20T13:57:56;9.20;;;3.90;;
43857;SDS011;29507;51.284;5.758;2022-08-20T14:00:23;8.13;;;3.00;;
43857;SDS011;29507;51.284;5.758;2022-08-20T14:02:51;10.27;;;3.00;;
43857;SDS011;29507;51.284;5.758;2022-08-20T14:05:16;9.57;;;2.70;;
43857;SDS011;29507;51.284;5.758;2022-08-20T14:07:42;8.95;;;2.90;;
43857;SDS011;29507;51.284;5.758;2022-08-20T14:10:10;9.88;;;2.95;;
43857;SDS011;29507;51.284;5.758;2022-08-20T14:12:38;7.68;;;3.05;;
43857;SDS011;29507;51.284;5.758;2022-08-20T14:15:04;8.73;;;2.80;;
43857;SDS011;29507;51.284;5.758;2022-08-20T14:17:34;8.73;;;3.00;;
43857;SDS011;29507;51.284;5.758;2022-08-20T14:20:10;7.28;;;2.92;;
43857;SDS011;29507;51.284;5.758;2022-08-20T14:22:38;11.43;;;3.30;;
43857;SDS011;29507;51.284;5.758;2022-08-20T14:25:04;7.95;;;3.05;;
43857;SDS011;29507;51.284;5.758;2022-08-20T14:27:32;7.97;;;3.50;;
43857;SDS011;29507;51.284;5.758;2022-08-20T14:29:58;7.32;;;2.80;;
43857;SDS011;29507;51.284;5.758;2022-08-20T14:32:25;9.40;;;3.22;;
43857;SDS011;29507;51.284;5.758;2022-08-20T14:34:52;9.00;;;2.97;;
43857;SDS011;29507;51.284;5.758;2022-08-20T14:37:19;8.07;;;2.67;;
43857;SDS011;29507;51.284;5.758;2022-08-20T14:39:51;7.63;;;3.10;;
43857;SDS011;29507;51.284;5.758;2022-08-20T14:42:18;8.50;;;3.05;;
43857;SDS011;29507;51.284;5.758;2022-08-20T14:44:46;8.45;;;2.58;;